Time;durP1;ratioP1;P1;durP2;ratioP2;P2;SDS_P1;SDS_P2;PMS_P1;PMS_P2;Temp;Humidity;BMP_temperature;BMP_pressure;BME280_temperature;BME280_humidity;BME280_pressure;Samples;Min_cycle;Max_cycle;Signal;HPM_P1;HPM_P2
2022/09/27 00:02:20;;;;;;;11.63;6.28;;;21.10;56.10;;;;;;5032710;28;20053;-76
2022/09/27 00:04:46;;;;;;;12.88;6.18;;;21.10;56.30;;;;;;5032227;28;20414;-76
2022/09/27 00:07:12;;;;;;;13.55;6.53;;;21.10;56.70;;;;;;5032023;28;20041;-76
2022/09/27 00:09:38;;;;;;;13.30;6.32;;;21.20;56.80;;;;;;5032768;28;20026;-77
2022/09/27 00:12:04;;;;;;;14.68;6.57;;;21.20;57.10;;;;;;5032542;28;20033;-76
2022/09/27 00:14:29;;;;;;;11.65;6.40;;;21.10;57.10;;;;;;5032159;28;20060;-77
2022/09/27 00:16:55;;;;;;;15.40;5.90;;;21.20;57.20;;;;;;5032100;28;20075;-76
2022/09/27 00:19:22;;;;;;;12.10;5.80;;;21.20;57.30;;;;;;5032207;28;20030;-77
2022/09/27 00:21:49;;;;;;;12.73;6.72;;;21.20;57.90;;;;;;5032357;28;20048;-77
2022/09/27 00:24:20;;;;;;;11.55;6.32;;;21.20;57.60;;;;;;5032260;28;20033;-76
2022/09/27 00:26:47;;;;;;;10.48;5.97;;;21.20;57.70;;;;;;5030307;28;20029;-75
2022/09/27 00:29:14;;;;;;;10.48;5.63;;;21.20;57.80;;;;;;5031116;28;20025;-77
2022/09/27 00:31:40;;;;;;;11.32;5.75;;;21.20;57.80;;;;;;5031113;28;20048;-76
2022/09/27 00:34:09;;;;;;;9.35;5.45;;;21.20;57.90;;;;;;5031848;28;20038;-77
2022/09/27 00:36:35;;;;;;;11.27;6.55;;;21.30;58.20;;;;;;5046902;28;20152;-76
2022/09/27 00:39:01;;;;;;;9.98;5.38;;;21.30;58.10;;;;;;5031189;28;20128;-76
2022/09/27 00:41:31;;;;;;;9.70;5.50;;;21.30;58.10;;;;;;5014038;28;20041;-76
2022/09/27 00:44:00;;;;;;;11.65;5.70;;;21.30;58.10;;;;;;5030797;28;20439;-76
2022/09/27 00:46:26;;;;;;;9.15;5.20;;;21.30;58.20;;;;;;5030319;28;20038;-76
2022/09/27 00:49:10;;;;;;;9.73;5.38;;;21.30;58.30;;;;;;5013800;28;20039;-76
2022/09/27 00:51:39;;;;;;;10.05;5.47;;;21.30;58.30;;;;;;5030409;28;20030;-77
2022/09/27 00:54:08;;;;;;;9.95;5.32;;;21.30;58.40;;;;;;5030727;28;20535;-76
2022/09/27 00:56:35;;;;;;;9.75;5.65;;;21.30;58.50;;;;;;5029954;28;20127;-76
2022/09/27 00:59:10;;;;;;;10.98;5.13;;;21.30;58.60;;;;;;5030182;28;20037;-77
2022/09/27 01:01:36;;;;;;;13.32;5.72;;;21.30;58.70;;;;;;5014010;28;20558;-76
2022/09/27 01:04:06;;;;;;;10.73;5.20;;;21.30;58.80;;;;;;5030107;28;20022;-77
2022/09/27 01:06:32;;;;;;;12.93;5.20;;;21.30;58.90;;;;;;5029689;28;20040;-77
2022/09/27 01:08:58;;;;;;;10.85;5.45;;;21.30;59.00;;;;;;5013568;28;20057;-77
2022/09/27 01:11:39;;;;;;;10.77;5.47;;;21.30;59.00;;;;;;5014106;28;20111;-76
2022/09/27 01:14:25;;;;;;;19.13;5.65;;;21.30;59.10;;;;;;5044729;22;20498;-74
2022/09/27 01:17:00;;;;;;;14.02;4.85;;;21.30;59.20;;;;;;4990595;28;20045;-75
2022/09/27 01:19:26;;;;;;;11.70;5.30;;;21.30;59.20;;;;;;5007026;28;20116;-74
2022/09/27 01:22:04;;;;;;;12.98;5.32;;;21.30;59.30;;;;;;5039797;28;20155;-74
2022/09/27 01:24:46;;;;;;;13.27;5.85;;;21.30;59.30;;;;;;5015835;28;20501;-74
2022/09/27 01:27:38;;;;;;;12.77;5.38;;;21.30;59.50;;;;;;5034066;28;20417;-74
2022/09/27 01:30:28;;;;;;;9.93;5.75;;;21.30;59.40;;;;;;5046137;28;20105;-74
2022/09/27 01:33:20;;;;;;;11.95;6.00;;;21.30;59.40;;;;;;5011571;28;20045;-74
2022/09/27 01:36:03;;;;;;;13.00;6.57;;;21.30;59.40;;;;;;5013826;28;20400;-74
2022/09/27 01:38:44;;;;;;;10.75;6.57;;;21.30;59.40;;;;;;5031216;28;20029;-74
2022/09/27 01:41:25;;;;;;;13.27;6.40;;;21.30;59.40;;;;;;5031320;28;20033;-74
2022/09/27 01:44:45;;;;;;;12.98;6.00;;;21.30;59.50;;;;;;5031304;28;20458;-74
2022/09/27 01:47:23;;;;;;;10.15;6.13;;;21.30;59.50;;;;;;5011437;28;20040;-74
2022/09/27 01:50:06;;;;;;;9.82;5.95;;;21.30;59.50;;;;;;5011450;28;20076;-73
2022/09/27 01:52:51;;;;;;;10.82;5.65;;;21.30;59.60;;;;;;5011286;28;20030;-73
2022/09/27 01:55:23;;;;;;;14.32;5.32;;;21.30;59.60;;;;;;5011198;28;20022;-73
2022/09/27 01:58:21;;;;;;;18.00;5.97;;;21.30;59.60;;;;;;5012528;28;20030;-74
2022/09/27 02:00:52;;;;;;;14.07;6.13;;;21.30;59.70;;;;;;5011394;28;20030;-74
2022/09/27 02:03:23;;;;;;;12.80;5.88;;;21.30;59.80;;;;;;5027408;28;20029;-74
2022/09/27 02:06:14;;;;;;;14.40;6.00;;;21.30;59.90;;;;;;5012120;28;20037;-74
2022/09/27 02:09:15;;;;;;;17.17;5.90;;;21.30;59.90;;;;;;5007867;28;20037;-74
2022/09/27 02:12:09;;;;;;;15.15;5.47;;;21.30;60.00;;;;;;5009280;28;20049;-75
2022/09/27 02:14:47;;;;;;;12.98;5.50;;;21.30;60.00;;;;;;5010991;28;20512;-74
2022/09/27 02:17:20;;;;;;;12.63;5.60;;;21.30;60.10;;;;;;5011260;28;20470;-74
2022/09/27 02:20:27;;;;;;;16.65;5.65;;;21.30;60.10;;;;;;5011415;28;20026;-74
2022/09/27 02:23:09;;;;;;;14.98;6.50;;;21.30;60.10;;;;;;5011216;28;20034;-74
2022/09/27 02:25:45;;;;;;;15.77;6.47;;;21.20;60.10;;;;;;5010633;28;20037;-74
2022/09/27 02:28:29;;;;;;;15.82;5.60;;;21.30;60.10;;;;;;5011050;28;20057;-74
2022/09/27 02:30:56;;;;;;;14.30;5.82;;;21.30;60.20;;;;;;5010919;28;20046;-74
2022/09/27 02:33:54;;;;;;;12.38;5.68;;;21.20;60.20;;;;;;5010818;28;20030;-74
2022/09/27 02:36:20;;;;;;;12.45;5.60;;;21.20;60.30;;;;;;5004917;28;20405;-74
2022/09/27 02:38:47;;;;;;;18.15;6.03;;;21.30;60.40;;;;;;5010709;28;20409;-74
2022/09/27 02:41:18;;;;;;;14.90;5.70;;;21.30;60.30;;;;;;5010783;28;20034;-74
2022/09/27 02:43:51;;;;;;;11.25;5.75;;;21.30;60.40;;;;;;5010765;28;20040;-74
2022/09/27 02:46:36;;;;;;;11.90;5.68;;;21.20;60.30;;;;;;5010450;28;20046;-74
2022/09/27 02:49:18;;;;;;;10.65;4.93;;;21.30;60.50;;;;;;5010545;28;20030;-74
2022/09/27 02:52:14;;;;;;;14.75;5.07;;;21.20;60.40;;;;;;5010727;28;20032;-74
2022/09/27 02:55:14;;;;;;;12.60;5.50;;;21.30;60.40;;;;;;5010679;28;20030;-74
2022/09/27 02:58:23;;;;;;;11.82;5.70;;;21.30;60.50;;;;;;5010980;28;20081;-74
2022/09/27 03:01:56;;;;;;;11.25;5.35;;;21.30;60.70;;;;;;5010520;28;20460;-74
2022/09/27 03:04:46;;;;;;;12.38;5.50;;;21.30;61.00;;;;;;5011825;28;20037;-74
2022/09/27 03:07:13;;;;;;;10.45;5.20;;;21.30;60.50;;;;;;5014559;28;20033;-74
2022/09/27 03:09:48;;;;;;;11.25;5.32;;;21.30;60.40;;;;;;5014373;28;20036;-74
2022/09/27 03:12:24;;;;;;;15.18;5.72;;;21.30;60.50;;;;;;5014465;28;20054;-74
2022/09/27 03:14:55;;;;;;;13.02;5.65;;;21.30;60.50;;;;;;5013950;28;20077;-74
2022/09/27 03:17:44;;;;;;;8.18;5.07;;;21.30;60.60;;;;;;5015522;28;20235;-74
2022/09/27 03:20:31;;;;;;;12.00;5.32;;;21.30;60.60;;;;;;5030859;28;20402;-74
2022/09/27 03:23:04;;;;;;;12.70;4.97;;;21.30;60.70;;;;;;5014222;28;20109;-74
2022/09/27 03:25:30;;;;;;;11.23;5.03;;;21.30;60.70;;;;;;5013826;28;20038;-74
2022/09/27 03:27:58;;;;;;;10.23;5.10;;;21.30;60.70;;;;;;5015224;28;20034;-74
2022/09/27 03:30:25;;;;;;;13.93;5.32;;;21.30;60.70;;;;;;5013971;28;20502;-74
2022/09/27 03:32:51;;;;;;;9.40;4.85;;;21.30;60.70;;;;;;5014088;28;20680;-74
2022/09/27 03:35:36;;;;;;;12.95;5.22;;;21.30;60.70;;;;;;5013662;28;20076;-74
2022/09/27 03:38:03;;;;;;;12.68;4.80;;;21.30;60.70;;;;;;5013899;28;20125;-74
2022/09/27 03:40:29;;;;;;;11.48;4.90;;;21.30;60.70;;;;;;5013826;28;20109;-74
2022/09/27 03:42:55;;;;;;;11.05;5.30;;;21.30;60.80;;;;;;5013709;28;20030;-74
2022/09/27 03:45:21;;;;;;;13.15;4.95;;;21.30;60.80;;;;;;5013355;28;20034;-75
2022/09/27 03:47:47;;;;;;;11.52;4.97;;;21.30;60.90;;;;;;5013726;28;20029;-74
2022/09/27 03:50:14;;;;;;;12.38;4.82;;;21.30;60.80;;;;;;5013580;28;20417;-75
2022/09/27 03:52:41;;;;;;;9.70;4.80;;;21.30;60.80;;;;;;5013706;28;20022;-74
2022/09/27 03:55:08;;;;;;;12.35;4.80;;;21.30;60.80;;;;;;5013468;28;20061;-74
2022/09/27 03:57:34;;;;;;;9.98;4.78;;;21.30;61.10;;;;;;5013452;28;20038;-75
2022/09/27 04:00:00;;;;;;;9.70;4.97;;;21.30;60.80;;;;;;5013542;28;20040;-75
2022/09/27 04:02:46;;;;;;;10.82;4.95;;;21.30;60.80;;;;;;5014649;28;20112;-75
2022/09/27 04:05:27;;;;;;;11.45;4.85;;;21.30;60.80;;;;;;5014368;28;20423;-75
2022/09/27 04:08:07;;;;;;;10.73;4.72;;;21.30;60.80;;;;;;4998728;28;20062;-74
2022/09/27 04:10:33;;;;;;;10.02;4.93;;;21.30;61.00;;;;;;5013332;28;20057;-75
2022/09/27 04:12:59;;;;;;;10.75;4.32;;;21.30;60.90;;;;;;5013236;28;20029;-75
2022/09/27 04:15:29;;;;;;;12.35;4.82;;;21.30;61.00;;;;;;5012852;28;20393;-75
2022/09/27 04:18:13;;;;;;;11.45;5.05;;;21.40;61.00;;;;;;5014494;28;20108;-75
2022/09/27 04:21:12;;;;;;;9.13;4.80;;;21.40;61.00;;;;;;4991288;28;20033;-75
2022/09/27 04:23:45;;;;;;;10.70;4.95;;;21.40;60.90;;;;;;5013214;28;20029;-75
2022/09/27 04:26:13;;;;;;;11.63;4.87;;;21.40;61.00;;;;;;5012630;28;20037;-75
2022/09/27 04:28:52;;;;;;;9.07;4.72;;;21.40;61.00;;;;;;5012895;28;20088;-75
2022/09/27 04:31:18;;;;;;;12.38;4.70;;;21.30;60.90;;;;;;5013247;28;20034;-75
2022/09/27 04:34:07;;;;;;;12.90;4.82;;;21.40;61.10;;;;;;4999775;28;20030;-75
2022/09/27 04:36:35;;;;;;;11.10;4.95;;;21.30;61.00;;;;;;5012395;28;20022;-75
2022/09/27 04:39:17;;;;;;;9.73;4.55;;;21.30;61.00;;;;;;5012881;28;20112;-75
2022/09/27 04:41:44;;;;;;;10.95;5.10;;;21.30;61.10;;;;;;5012856;28;20038;-75
2022/09/27 04:44:10;;;;;;;10.82;5.50;;;21.30;61.10;;;;;;5012651;28;20034;-75
2022/09/27 04:46:38;;;;;;;12.63;5.30;;;21.30;61.10;;;;;;5012377;28;20124;-75
2022/09/27 04:49:04;;;;;;;10.05;4.97;;;21.30;61.10;;;;;;5012525;28;20117;-75
2022/09/27 04:51:32;;;;;;;9.25;4.78;;;21.30;61.20;;;;;;5012413;28;20037;-75
2022/09/27 04:53:59;;;;;;;9.90;4.68;;;21.30;61.20;;;;;;5013669;28;20105;-75
2022/09/27 04:56:28;;;;;;;11.68;4.50;;;21.30;61.10;;;;;;5012205;28;20072;-75
2022/09/27 04:58:54;;;;;;;10.30;4.53;;;21.30;61.20;;;;;;5012332;28;20045;-75
2022/09/27 05:01:21;;;;;;;10.73;4.90;;;21.30;61.20;;;;;;5012300;28;20564;-75
2022/09/27 05:04:07;;;;;;;9.85;4.47;;;21.30;61.30;;;;;;5015039;28;20042;-73
2022/09/27 05:06:37;;;;;;;7.78;4.38;;;21.30;61.20;;;;;;5029802;28;20039;-74
2022/09/27 05:09:15;;;;;;;9.15;4.68;;;21.30;61.30;;;;;;5031307;28;20029;-75
2022/09/27 05:11:48;;;;;;;11.32;5.10;;;21.30;61.40;;;;;;5031905;28;20124;-75
2022/09/27 05:14:31;;;;;;;12.40;5.00;;;21.30;61.60;;;;;;5032378;28;20025;-75
2022/09/27 05:17:06;;;;;;;10.13;4.43;;;21.30;61.60;;;;;;5032709;28;20079;-74
2022/09/27 05:19:56;;;;;;;12.95;4.53;;;21.30;61.50;;;;;;5032032;28;20060;-75
2022/09/27 05:22:32;;;;;;;10.63;4.70;;;21.30;61.50;;;;;;5015025;28;20036;-74
2022/09/27 05:24:58;;;;;;;13.20;4.45;;;21.30;61.40;;;;;;5031303;28;20405;-74
2022/09/27 05:27:24;;;;;;;10.80;4.68;;;21.40;61.50;;;;;;5031073;28;20108;-74
2022/09/27 05:29:50;;;;;;;6.93;3.90;;;21.40;61.50;;;;;;5031419;28;20026;-74
2022/09/27 05:32:29;;;;;;;8.88;4.38;;;21.40;61.40;;;;;;5031411;28;20057;-74
2022/09/27 05:35:17;;;;;;;8.63;4.55;;;21.40;61.40;;;;;;5032169;28;20025;-73
2022/09/27 05:37:50;;;;;;;8.20;4.38;;;21.40;61.40;;;;;;5031280;28;20041;-74
2022/09/27 05:40:16;;;;;;;12.48;4.32;;;21.40;61.40;;;;;;5031347;28;20040;-74
2022/09/27 05:42:45;;;;;;;9.57;4.45;;;21.40;61.60;;;;;;5031078;28;20205;-74
2022/09/27 05:45:10;;;;;;;7.47;4.22;;;21.40;61.70;;;;;;5030717;28;20338;-74
2022/09/27 05:47:36;;;;;;;13.20;4.85;;;21.40;61.90;;;;;;5031100;28;20037;-74
2022/09/27 05:50:02;;;;;;;10.02;4.80;;;21.40;62.00;;;;;;5031224;28;20032;-74
2022/09/27 05:52:28;;;;;;;9.63;4.65;;;21.40;61.80;;;;;;5031184;28;20056;-74
2022/09/27 05:54:54;;;;;;;10.73;4.75;;;21.30;61.70;;;;;;5030533;28;20029;-74
2022/09/27 05:57:21;;;;;;;9.60;4.65;;;21.40;61.90;;;;;;5031037;28;20025;-74
2022/09/27 05:59:47;;;;;;;7.72;4.60;;;21.40;61.90;;;;;;5030873;28;20018;-74
2022/09/27 06:02:34;;;;;;;13.35;4.90;;;21.40;61.90;;;;;;5029685;28;20041;-75
2022/09/27 06:05:18;;;;;;;14.07;4.45;;;21.30;61.70;;;;;;5032154;28;20427;-75
2022/09/27 06:08:16;;;;;;;10.10;4.28;;;21.40;61.90;;;;;;5031764;28;20041;-75
2022/09/27 06:10:46;;;;;;;10.07;4.60;;;21.40;62.00;;;;;;5013563;28;20021;-75
2022/09/27 06:13:15;;;;;;;10.45;4.80;;;21.40;61.90;;;;;;5046930;28;20095;-74
2022/09/27 06:15:43;;;;;;;10.30;4.65;;;21.40;61.90;;;;;;5026140;28;20100;-74
2022/09/27 06:18:16;;;;;;;10.40;4.45;;;21.30;61.70;;;;;;5029713;28;20041;-75
2022/09/27 06:20:44;;;;;;;8.90;4.07;;;21.30;61.80;;;;;;4998185;28;20057;-74
2022/09/27 06:23:17;;;;;;;11.80;4.55;;;21.40;62.00;;;;;;5047173;28;20033;-74
2022/09/27 06:25:44;;;;;;;8.57;4.90;;;21.40;62.00;;;;;;5030412;28;20029;-75
2022/09/27 06:28:31;;;;;;;17.50;5.07;;;21.40;62.00;;;;;;5043936;28;20052;-75
2022/09/27 06:30:59;;;;;;;10.30;4.80;;;21.40;62.00;;;;;;5021635;28;20075;-74
2022/09/27 06:33:45;;;;;;;11.40;4.80;;;21.40;62.10;;;;;;5046843;28;20026;-75
2022/09/27 06:36:11;;;;;;;10.60;4.47;;;21.40;62.00;;;;;;5030443;28;20075;-75
2022/09/27 06:38:39;;;;;;;7.30;4.30;;;21.30;62.10;;;;;;5029292;28;20061;-74
2022/09/27 06:41:15;;;;;;;8.35;4.00;;;21.40;62.00;;;;;;5018706;28;20030;-74
2022/09/27 06:44:12;;;;;;;10.00;4.57;;;21.40;62.10;;;;;;5022489;28;20037;-74
2022/09/27 06:47:13;;;;;;;10.90;4.80;;;21.40;62.20;;;;;;5024953;28;20033;-73
2022/09/27 06:49:48;;;;;;;9.63;4.65;;;21.40;62.20;;;;;;5027270;28;20072;-73
2022/09/27 06:52:16;;;;;;;9.20;4.03;;;21.40;62.10;;;;;;5027455;28;20091;-74
2022/09/27 06:54:42;;;;;;;11.02;4.70;;;21.40;62.10;;;;;;5006274;28;20030;-74
2022/09/27 06:57:08;;;;;;;11.73;4.45;;;21.40;62.20;;;;;;5030094;28;20030;-74
2022/09/27 07:03:00;;;;;;;35.95;5.75;;;21.40;63.20;;;;;;5030170;28;20032;-74
2022/09/27 07:05:57;;;;;;;17.90;5.13;;;21.50;65.30;;;;;;5030840;28;20040;-73
2022/09/27 07:08:53;;;;;;;18.75;5.32;;;21.60;66.90;;;;;;5025064;28;20188;-74
2022/09/27 07:11:22;;;;;;;20.52;5.93;;;21.60;67.20;;;;;;4997203;28;20397;-74
2022/09/27 07:13:48;;;;;;;12.60;5.35;;;21.60;67.50;;;;;;5042774;22;20073;-74
2022/09/27 07:16:14;;;;;;;13.55;5.70;;;21.70;67.20;;;;;;5028571;28;20036;-74
2022/09/27 07:18:41;;;;;;;28.33;6.22;;;21.70;67.80;;;;;;5024674;28;20103;-73
2022/09/27 07:21:08;;;;;;;14.80;5.13;;;21.70;66.30;;;;;;5027104;28;20075;-73
2022/09/27 07:23:35;;;;;;;13.23;6.90;;;21.50;67.60;;;;;;5016784;28;20035;-74
2022/09/27 07:26:03;;;;;;;21.20;7.82;;;21.40;62.60;;;;;;5037608;28;20040;-74
2022/09/27 07:28:30;;;;;;;15.23;7.70;;;21.30;64.90;;;;;;5013131;28;20397;-74
2022/09/27 07:30:57;;;;;;;17.35;7.55;;;21.40;65.30;;;;;;5008427;28;20026;-74
2022/09/27 07:33:24;;;;;;;24.92;8.05;;;21.40;64.20;;;;;;4992705;28;20421;-74
2022/09/27 07:35:50;;;;;;;24.65;8.85;;;21.40;64.40;;;;;;5041113;28;20040;-74
2022/09/27 07:38:16;;;;;;;22.55;9.07;;;21.50;64.10;;;;;;5040943;28;20026;-74
2022/09/27 07:40:42;;;;;;;15.95;7.78;;;21.50;64.20;;;;;;5008135;28;20034;-73
2022/09/27 07:43:08;;;;;;;16.10;7.63;;;21.40;63.00;;;;;;5009921;28;20034;-73
2022/09/27 07:45:35;;;;;;;15.45;7.68;;;21.40;63.10;;;;;;5042469;28;20030;-73
2022/09/27 07:48:13;;;;;;;19.17;7.82;;;21.50;63.50;;;;;;5043023;28;20030;-73
2022/09/27 07:50:57;;;;;;;22.10;9.73;;;21.40;63.50;;;;;;5043190;28;20549;-73
2022/09/27 07:53:41;;;;;;;19.33;8.52;;;21.50;64.10;;;;;;5012931;28;20417;-73
2022/09/27 07:56:27;;;;;;;17.75;7.65;;;21.50;64.20;;;;;;5012122;28;20041;-74
2022/09/27 07:58:53;;;;;;;16.30;7.43;;;21.50;63.80;;;;;;5046262;28;20072;-74
2022/09/27 08:01:19;;;;;;;14.73;7.88;;;21.50;63.70;;;;;;5046279;28;20053;-74
2022/09/27 08:03:46;;;;;;;16.05;7.97;;;21.50;64.30;;;;;;4996957;28;20042;-74
2022/09/27 08:06:14;;;;;;;16.67;7.18;;;21.50;64.20;;;;;;5029034;28;20037;-75
2022/09/27 08:08:40;;;;;;;14.50;7.22;;;21.50;64.20;;;;;;5046429;28;20030;-75
2022/09/27 08:11:15;;;;;;;15.52;7.13;;;21.50;64.00;;;;;;5046002;28;20197;-75
2022/09/27 08:13:42;;;;;;;17.08;7.40;;;21.50;63.60;;;;;;5045807;28;20030;-75
2022/09/27 08:16:10;;;;;;;14.75;7.07;;;21.50;64.20;;;;;;5028987;28;20030;-75
2022/09/27 08:18:55;;;;;;;16.67;7.38;;;21.50;63.60;;;;;;5014853;28;20508;-75
2022/09/27 08:21:41;;;;;;;16.67;7.55;;;21.50;63.80;;;;;;5013742;28;20254;-75
2022/09/27 08:24:14;;;;;;;14.98;7.25;;;21.50;63.70;;;;;;5044424;28;20729;-75
2022/09/27 08:27:09;;;;;;;16.98;7.18;;;21.50;63.60;;;;;;5004086;28;20038;-75
2022/09/27 08:29:46;;;;;;;12.60;7.13;;;21.50;63.70;;;;;;5044200;28;20503;-75
2022/09/27 08:32:13;;;;;;;13.05;7.68;;;21.50;63.50;;;;;;5010730;28;20034;-75
2022/09/27 08:34:39;;;;;;;16.60;7.80;;;21.50;63.70;;;;;;5008783;28;20629;-75
2022/09/27 08:37:05;;;;;;;21.63;8.30;;;21.40;63.70;;;;;;5020200;28;20049;-75
2022/09/27 08:39:31;;;;;;;19.98;8.05;;;21.50;63.90;;;;;;5011457;28;20033;-75
2022/09/27 08:42:26;;;;;;;17.75;7.45;;;21.50;63.90;;;;;;5037892;28;20617;-74
2022/09/27 08:45:07;;;;;;;18.20;8.13;;;21.50;64.00;;;;;;5005078;28;20049;-75
2022/09/27 08:47:44;;;;;;;18.75;7.72;;;21.50;63.80;;;;;;5011389;28;20087;-75
2022/09/27 08:50:34;;;;;;;22.23;8.02;;;21.50;63.80;;;;;;5013558;28;20041;-75
2022/09/27 08:53:06;;;;;;;17.23;7.65;;;21.50;63.90;;;;;;5044452;28;20049;-75
2022/09/27 08:55:43;;;;;;;18.73;7.88;;;21.50;64.00;;;;;;5028404;28;20038;-75
2022/09/27 08:58:28;;;;;;;17.02;7.32;;;21.50;64.20;;;;;;5045324;28;20104;-75
2022/09/27 09:01:03;;;;;;;17.55;7.75;;;21.50;64.30;;;;;;5045096;28;20030;-75
2022/09/27 09:03:40;;;;;;;29.50;8.25;;;21.60;64.30;;;;;;5044525;28;20090;-74
2022/09/27 09:06:09;;;;;;;20.15;8.30;;;21.60;64.20;;;;;;5043342;28;20034;-74
2022/09/27 09:08:34;;;;;;;19.40;7.90;;;21.60;64.10;;;;;;5028261;28;20034;-75
2022/09/27 09:14:24;;;;;;;30.30;9.13;;;21.60;64.30;;;;;;5001131;28;20080;-75
2022/09/27 09:16:56;;;;;;;18.27;8.60;;;21.60;64.40;;;;;;5010585;28;20076;-86
2022/09/27 09:19:56;;;;;;;12.70;6.88;;;21.60;64.40;;;;;;5029102;28;20034;-88
2022/09/27 09:23:34;;;;;;;6.70;4.30;;;21.50;63.50;;;;;;5003455;28;20060;-86
2022/09/27 09:26:18;;;;;;;8.35;3.78;;;21.40;61.90;;;;;;5022008;28;20042;-86
2022/09/27 09:29:13;;;;;;;4.75;2.10;;;21.30;61.80;;;;;;5028478;28;20033;-81
2022/09/27 09:31:42;;;;;;;9.38;3.20;;;21.20;60.40;;;;;;5044453;28;20037;-75
2022/09/27 09:34:30;;;;;;;7.55;2.80;;;21.20;60.50;;;;;;5027880;28;20025;-74
2022/09/27 09:37:01;;;;;;;9.13;2.90;;;21.20;60.90;;;;;;5043206;28;20034;-74
2022/09/27 09:39:39;;;;;;;5.28;2.83;;;21.30;60.60;;;;;;5012690;28;20029;-74
2022/09/27 09:42:14;;;;;;;9.25;3.03;;;21.30;60.60;;;;;;5044035;28;20041;-76
2022/09/27 09:44:57;;;;;;;8.35;3.92;;;21.40;60.80;;;;;;5044229;28;20041;-70
2022/09/27 09:47:38;;;;;;;16.90;9.13;;;21.40;60.80;;;;;;5041178;28;20030;-75
2022/09/27 09:50:26;;;;;;;21.45;12.57;;;21.30;60.50;;;;;;5010809;28;20516;-74
2022/09/27 09:53:18;;;;;;;75.68;50.90;;;21.30;60.60;;;;;;5024075;28;20394;-74
2022/09/27 09:55:56;;;;;;;47.47;30.90;;;21.30;60.70;;;;;;4991134;28;20054;-74
2022/09/27 09:58:50;;;;;;;37.40;24.27;;;21.40;60.30;;;;;;5024178;28;20034;-74
2022/09/27 10:01:26;;;;;;;32.00;19.63;;;21.40;60.30;;;;;;5007111;28;20422;-74
2022/09/27 10:03:54;;;;;;;28.05;19.25;;;21.40;60.40;;;;;;5043814;28;20441;-74
2022/09/27 10:06:23;;;;;;;33.95;22.77;;;21.50;60.70;;;;;;5010491;28;20478;-75
2022/09/27 10:08:53;;;;;;;29.88;20.67;;;21.50;60.70;;;;;;5043612;28;20022;-74
2022/09/27 10:11:45;;;;;;;31.50;21.25;;;21.50;60.90;;;;;;5010847;28;20033;-75
2022/09/27 10:14:31;;;;;;;32.38;21.42;;;21.50;61.50;;;;;;5004846;28;20266;-74
2022/09/27 10:17:05;;;;;;;35.45;21.15;;;21.50;60.80;;;;;;5041802;28;20030;-75
2022/09/27 10:19:32;;;;;;;;;;;21.60;61.00;;;;;;5011428;28;20117;-75
2022/09/27 10:22:21;;;;;;;35.43;21.67;;;21.50;61.10;;;;;;4994438;28;19933;-74
2022/09/27 10:25:01;;;;;;;32.80;20.75;;;21.60;61.20;;;;;;5038256;28;20394;-73
2022/09/27 10:27:52;;;;;;;34.80;20.05;;;21.60;61.70;;;;;;5008595;28;20353;-75
2022/09/27 10:30:23;;;;;;;35.00;20.88;;;21.60;62.00;;;;;;5008924;28;20382;-74
2022/09/27 10:32:52;;;;;;;30.63;19.67;;;21.70;62.40;;;;;;5010234;28;20026;-80
2022/09/27 10:35:44;;;;;;;28.73;19.95;;;21.70;62.10;;;;;;5008220;28;20032;-74
2022/09/27 10:38:34;;;;;;;33.25;19.65;;;21.60;61.90;;;;;;5008938;28;20612;-74
2022/09/27 10:41:25;;;;;;;29.63;16.70;;;21.60;62.10;;;;;;5005281;28;20041;-74
2022/09/27 10:44:18;;;;;;;26.23;15.05;;;21.50;61.30;;;;;;5010323;28;20486;-73
2022/09/27 10:46:50;;;;;;;23.20;15.05;;;21.50;61.20;;;;;;4993984;28;20025;-74
2022/09/27 10:49:34;;;;;;;27.17;16.35;;;21.50;61.10;;;;;;5009253;28;20037;-74
2022/09/27 10:52:16;;;;;;;26.88;16.25;;;21.50;61.40;;;;;;5042948;28;20022;-74
2022/09/27 10:54:53;;;;;;;29.33;17.03;;;21.50;61.40;;;;;;5037645;28;20026;-74
2022/09/27 10:57:23;;;;;;;24.83;16.65;;;21.50;61.70;;;;;;4993664;28;20030;-73
2022/09/27 10:59:54;;;;;;;22.73;16.15;;;21.50;61.70;;;;;;5043257;28;20066;-73
2022/09/27 11:02:33;;;;;;;26.77;15.50;;;21.60;61.90;;;;;;5010181;28;20030;-74
2022/09/27 11:05:25;;;;;;;32.05;15.93;;;21.50;61.90;;;;;;5042117;28;20389;-74
2022/09/27 11:07:56;;;;;;;31.55;15.52;;;21.60;62.10;;;;;;5026511;28;20060;-74
2022/09/27 11:10:36;;;;;;;23.95;15.15;;;21.60;62.10;;;;;;5010189;28;20061;-74
2022/09/27 11:13:13;;;;;;;25.35;14.98;;;21.60;62.20;;;;;;5010135;28;20053;-74
2022/09/27 11:16:05;;;;;;;23.48;14.63;;;21.60;62.20;;;;;;5042978;28;20414;-74
2022/09/27 11:19:17;;;;;;;23.30;14.00;;;21.60;62.30;;;;;;5009957;28;20037;-74
2022/09/27 11:22:02;;;;;;;23.00;15.38;;;21.60;62.20;;;;;;5010076;28;20041;-74
2022/09/27 11:24:39;;;;;;;22.42;14.00;;;21.70;62.30;;;;;;5043166;28;20578;-74
2022/09/27 11:27:19;;;;;;;25.60;15.27;;;21.70;62.20;;;;;;5044801;28;20041;-74
2022/09/27 11:30:09;;;;;;;27.05;14.73;;;21.70;62.10;;;;;;5030171;28;20042;-74
2022/09/27 11:33:22;;;;;;;23.48;14.23;;;21.70;62.10;;;;;;5012536;28;20037;-74
2022/09/27 11:36:24;;;;;;;23.63;14.32;;;21.70;62.20;;;;;;5011809;28;20088;-73
2022/09/27 11:39:03;;;;;;;23.05;14.07;;;21.70;62.20;;;;;;5012799;28;20112;-74
2022/09/27 11:41:54;;;;;;;21.60;14.57;;;21.70;62.20;;;;;;5044971;28;20162;-74
2022/09/27 11:44:28;;;;;;;24.43;13.93;;;21.70;62.40;;;;;;5033133;28;20080;-74
2022/09/27 11:47:15;;;;;;;22.98;13.73;;;21.70;62.40;;;;;;5032622;28;20032;-74
2022/09/27 11:50:09;;;;;;;22.08;14.20;;;21.70;62.40;;;;;;5033090;28;20037;-74
2022/09/27 11:52:46;;;;;;;22.05;13.55;;;21.80;62.50;;;;;;5032921;28;20061;-73
2022/09/27 11:55:38;;;;;;;23.75;14.07;;;21.80;62.40;;;;;;5032878;28;20096;-74
2022/09/27 11:58:25;;;;;;;22.45;13.40;;;21.80;62.30;;;;;;5032500;28;20440;-74
2022/09/27 12:01:15;;;;;;;21.02;13.02;;;21.80;62.60;;;;;;5017104;28;20037;-74
2022/09/27 12:03:50;;;;;;;22.13;13.32;;;21.80;62.50;;;;;;5017138;28;20037;-74
2022/09/27 12:07:01;;;;;;;20.65;12.48;;;21.70;62.50;;;;;;4996412;28;20072;-74
2022/09/27 12:09:35;;;;;;;23.92;12.90;;;21.70;62.60;;;;;;4993521;28;20452;-73
2022/09/27 12:12:13;;;;;;;24.42;13.77;;;21.80;62.70;;;;;;5016408;28;20026;-74
2022/09/27 12:14:45;;;;;;;24.67;13.25;;;21.80;62.80;;;;;;5015588;28;20386;-74
2022/09/27 12:17:22;;;;;;;22.02;12.77;;;21.70;62.70;;;;;;5032572;28;20021;-73
2022/09/27 12:19:54;;;;;;;20.02;12.98;;;21.80;62.70;;;;;;5027374;28;20124;-74
2022/09/27 12:22:36;;;;;;;20.60;11.93;;;21.80;62.70;;;;;;5016184;28;20072;-73
2022/09/27 12:25:03;;;;;;;21.58;12.35;;;21.80;62.70;;;;;;5015482;28;20037;-74
2022/09/27 12:27:45;;;;;;;22.20;12.63;;;21.80;62.80;;;;;;5032427;28;20090;-73
2022/09/27 12:30:16;;;;;;;18.75;11.60;;;21.80;62.90;;;;;;5032497;28;20021;-74
2022/09/27 12:33:01;;;;;;;20.55;12.80;;;21.70;63.00;;;;;;5015843;28;20481;-74
2022/09/27 12:35:31;;;;;;;24.35;12.43;;;21.80;63.10;;;;;;5003570;28;20022;-74
2022/09/27 12:38:10;;;;;;;20.88;12.63;;;21.80;63.10;;;;;;5011178;28;20052;-74
2022/09/27 12:40:40;;;;;;;22.42;12.65;;;21.80;63.00;;;;;;5012053;28;20041;-75
2022/09/27 12:43:26;;;;;;;21.88;12.43;;;21.80;62.90;;;;;;5045461;28;20042;-74
2022/09/27 12:46:24;;;;;;;23.98;12.27;;;21.80;62.80;;;;;;5013012;28;20044;-74
2022/09/27 12:49:04;;;;;;;22.98;12.32;;;21.80;62.80;;;;;;5045232;28;20034;-75
2022/09/27 12:51:53;;;;;;;18.77;11.68;;;21.80;62.80;;;;;;5045103;28;20061;-74
2022/09/27 12:54:55;;;;;;;24.75;12.15;;;21.70;62.70;;;;;;5008083;28;20026;-75
2022/09/27 12:57:26;;;;;;;18.60;12.35;;;21.70;62.80;;;;;;5012317;28;20429;-75
2022/09/27 13:00:22;;;;;;;22.25;11.57;;;21.70;62.80;;;;;;5045018;28;20108;-74
2022/09/27 13:03:15;;;;;;;18.67;11.63;;;21.70;62.80;;;;;;5009718;28;20064;-74
2022/09/27 13:06:12;;;;;;;17.95;11.43;;;21.70;62.80;;;;;;5027975;28;20543;-75
2022/09/27 13:09:09;;;;;;;20.70;11.23;;;21.70;62.80;;;;;;5044395;28;20037;-75
2022/09/27 13:12:02;;;;;;;18.90;11.25;;;21.70;62.80;;;;;;5027803;28;20029;-75
2022/09/27 13:14:34;;;;;;;18.70;11.35;;;21.70;62.80;;;;;;5044712;28;20481;-75
2022/09/27 13:17:00;;;;;;;21.20;11.63;;;21.70;62.80;;;;;;5044780;28;20393;-75
2022/09/27 13:19:44;;;;;;;19.17;11.63;;;21.70;62.80;;;;;;5011742;28;20457;-74
2022/09/27 13:22:41;;;;;;;18.65;12.13;;;21.70;62.80;;;;;;5027985;28;20065;-74
2022/09/27 13:25:50;;;;;;;18.20;10.82;;;21.70;62.80;;;;;;5011033;28;20053;-74
2022/09/27 13:28:49;;;;;;;21.23;11.35;;;21.70;62.80;;;;;;5011545;28;20034;-75
2022/09/27 13:31:52;;;;;;;16.90;10.57;;;21.70;62.80;;;;;;5027976;28;20382;-75
2022/09/27 13:34:40;;;;;;;18.40;11.00;;;21.70;63.40;;;;;;5027355;28;20585;-75
2022/09/27 13:37:35;;;;;;;21.27;11.45;;;21.70;62.80;;;;;;5044172;28;20025;-75